Albuquerque International Sunport Airport
KABQ : now visible

Airfield :











YOU CAN JOIN US ON...

 
LOGIN :

Register | Disclaimer

   EN    FR    IT 

 









Legend :    VFR   Marginal VFR   IFR   Intensive IFR   Very Intensive IFR
Visi :
Ceiling :
>= 8 km
>= 3000ft
5 to 8 km
1000 to 3000 ft
1500m to 5 km
500 to 1000 ft
800 to 1500m
200 to 500 ft
< 800m
< 200 ft
Symbols :   Thunderstorms  Fog  Heavy snow  Heavy precipitations  Wind > 20 kt






- Airport Elevation : 5355 ft
- IATA code : ABQ


KABQ - Albuquerque International Sunport

CURRENT METAR :
  • 021652Z 01003KT 9SM -RA FEW026 BKN100 OVC120 20/14 A3040 RMK AO2 SLP225 MTN TOP OBSC NE MTNS OBSC SE P0001 T02000144

EXPIRED METARs :
  • 021552Z 34007KT 6SM -RA FEW050 BKN070 OVC090 19/14 A3041 RMK AO2 RAB08 SLP229 MTNS OBSC NE-SE P0002 T01890144
  • 021452Z 08006KT 10SM FEW040 BKN050 OVC070 21/11 A3041 RMK AO2 SLP224 MTNS OBSC NE T02060111 51010

TAF KABQ
Valid from the 02 at 14:00 until the 03 at 12:00 UTC


021409Z 0214/0312 VRB06KT P6SM -SHRA BKN060
FM021700 23006KT P6SM SCT070 SCT100
FM022300 VRB06KT P6SM VCTS BKN070CB
TEMPO 0300/0303 VRB20G30KT 6SM TSRA OVC060CB
FM030300 10010G18KT P6SM VCSH BKN060
FM030700 13005KT P6SM SCT100
KZAB FIR / North America



MET'MAP, your aeronautical weather chart ! - Copyright ORBIFLY December 2007 - Disclaimer

ORBIFLY MET'MAP TEAM :

Programming & Development : Alexandra Zaïnal
Concept & original design : Baudouin d'Aumeries
Assistance for programming : Marc-Olivier Méhu
Technical & hardware support : Manuel Goepfert

Contact : metmap@orbifly.com




SOURCES & CREDITS :

   NOAA       Earth
Advisory